sensor_id;sensor_type;location;lat;lon;timestamp;pressure;altitude;pressure_sealevel;temperature;humidity
10706;BME280;5404;42.656;23.336;2023-05-16T00:00:23;64459.16;;;-141.35;100.00
10706;BME280;5404;42.656;23.336;2023-05-16T00:02:49;64459.16;;;-141.35;100.00
10706;BME280;5404;42.656;23.336;2023-05-16T00:05:15;64459.16;;;-141.35;100.00
10706;BME280;5404;42.656;23.336;2023-05-16T00:07:43;64459.16;;;-141.35;100.00
10706;BME280;5404;42.656;23.336;2023-05-16T00:10:10;64459.16;;;-141.35;100.00
10706;BME280;5404;42.656;23.336;2023-05-16T00:12:38;64459.16;;;-141.35;100.00
10706;BME280;5404;42.656;23.336;2023-05-16T00:15:07;64459.16;;;-141.35;100.00
10706;BME280;5404;42.656;23.336;2023-05-16T00:17:36;64459.16;;;-141.35;100.00
10706;BME280;5404;42.656;23.336;2023-05-16T00:20:01;64459.16;;;-141.35;100.00
10706;BME280;5404;42.656;23.336;2023-05-16T00:22:33;64459.16;;;-141.35;100.00
10706;BME280;5404;42.656;23.336;2023-05-16T00:24:58;64459.16;;;-141.35;100.00
10706;BME280;5404;42.656;23.336;2023-05-16T00:27:24;64459.16;;;-141.35;100.00
10706;BME280;5404;42.656;23.336;2023-05-16T00:29:49;64459.16;;;-141.35;100.00
10706;BME280;5404;42.656;23.336;2023-05-16T00:32:17;64459.16;;;-141.35;100.00
10706;BME280;5404;42.656;23.336;2023-05-16T00:34:43;64459.16;;;-141.35;100.00
10706;BME280;5404;42.656;23.336;2023-05-16T00:37:08;64459.16;;;-141.35;100.00
10706;BME280;5404;42.656;23.336;2023-05-16T00:39:34;64459.16;;;-141.35;100.00
10706;BME280;5404;42.656;23.336;2023-05-16T00:41:59;64459.16;;;-141.35;100.00
10706;BME280;5404;42.656;23.336;2023-05-16T00:44:25;64459.16;;;-141.35;100.00
10706;BME280;5404;42.656;23.336;2023-05-16T00:46:51;64459.16;;;-141.35;100.00
10706;BME280;5404;42.656;23.336;2023-05-16T00:49:17;64459.16;;;-141.35;100.00
10706;BME280;5404;42.656;23.336;2023-05-16T00:51:44;64459.16;;;-141.35;100.00
10706;BME280;5404;42.656;23.336;2023-05-16T00:54:10;64459.16;;;-141.35;100.00
10706;BME280;5404;42.656;23.336;2023-05-16T00:56:36;64459.16;;;-141.35;100.00
10706;BME280;5404;42.656;23.336;2023-05-16T00:59:01;64459.16;;;-141.35;100.00
10706;BME280;5404;42.656;23.336;2023-05-16T01:01:28;64459.16;;;-141.35;100.00
10706;BME280;5404;42.656;23.336;2023-05-16T01:03:53;64459.16;;;-141.35;100.00
10706;BME280;5404;42.656;23.336;2023-05-16T01:06:19;64459.16;;;-141.35;100.00
10706;BME280;5404;42.656;23.336;2023-05-16T01:08:45;64459.16;;;-141.35;100.00
10706;BME280;5404;42.656;23.336;2023-05-16T01:11:26;64459.16;;;-141.35;100.00
10706;BME280;5404;42.656;23.336;2023-05-16T01:19:39;64459.16;;;-141.35;100.00
10706;BME280;5404;42.656;23.336;2023-05-16T01:25:37;64459.16;;;-141.35;100.00
10706;BME280;5404;42.656;23.336;2023-05-16T01:28:07;64459.16;;;-141.35;100.00
10706;BME280;5404;42.656;23.336;2023-05-16T01:30:37;64459.16;;;-141.35;100.00
10706;BME280;5404;42.656;23.336;2023-05-16T01:33:03;64459.16;;;-141.35;100.00
10706;BME280;5404;42.656;23.336;2023-05-16T01:35:29;64459.16;;;-141.35;100.00
10706;BME280;5404;42.656;23.336;2023-05-16T01:40:53;64459.16;;;-141.35;100.00
10706;BME280;5404;42.656;23.336;2023-05-16T01:43:51;64459.16;;;-141.35;100.00
10706;BME280;5404;42.656;23.336;2023-05-16T01:46:26;64459.16;;;-141.35;100.00
10706;BME280;5404;42.656;23.336;2023-05-16T01:52:08;64459.16;;;-141.35;100.00
10706;BME280;5404;42.656;23.336;2023-05-16T01:54:37;64459.16;;;-141.35;100.00
10706;BME280;5404;42.656;23.336;2023-05-16T01:57:04;64459.16;;;-141.35;100.00
10706;BME280;5404;42.656;23.336;2023-05-16T01:59:34;64459.16;;;-141.35;100.00
10706;BME280;5404;42.656;23.336;2023-05-16T02:02:00;64459.16;;;-141.35;100.00
10706;BME280;5404;42.656;23.336;2023-05-16T02:04:27;64459.16;;;-141.35;100.00
10706;BME280;5404;42.656;23.336;2023-05-16T02:06:52;64459.16;;;-141.35;100.00
10706;BME280;5404;42.656;23.336;2023-05-16T02:09:18;64459.16;;;-141.35;100.00
10706;BME280;5404;42.656;23.336;2023-05-16T02:11:43;64459.16;;;-141.35;100.00
10706;BME280;5404;42.656;23.336;2023-05-16T02:14:11;64459.16;;;-141.35;100.00
10706;BME280;5404;42.656;23.336;2023-05-16T02:16:36;64459.16;;;-141.35;100.00
10706;BME280;5404;42.656;23.336;2023-05-16T02:19:02;64459.16;;;-141.35;100.00
10706;BME280;5404;42.656;23.336;2023-05-16T02:21:28;64459.16;;;-141.35;100.00
10706;BME280;5404;42.656;23.336;2023-05-16T02:23:53;64459.16;;;-141.35;100.00
10706;BME280;5404;42.656;23.336;2023-05-16T02:26:19;64459.16;;;-141.35;100.00
10706;BME280;5404;42.656;23.336;2023-05-16T02:28:45;64459.16;;;-141.35;100.00
10706;BME280;5404;42.656;23.336;2023-05-16T02:31:10;64459.16;;;-141.35;100.00
10706;BME280;5404;42.656;23.336;2023-05-16T02:33:35;64459.16;;;-141.35;100.00
10706;BME280;5404;42.656;23.336;2023-05-16T02:36:01;64459.16;;;-141.35;100.00
10706;BME280;5404;42.656;23.336;2023-05-16T02:38:26;64459.16;;;-141.35;100.00
10706;BME280;5404;42.656;23.336;2023-05-16T02:40:53;64459.16;;;-141.35;100.00
10706;BME280;5404;42.656;23.336;2023-05-16T02:43:19;64459.16;;;-141.35;100.00
10706;BME280;5404;42.656;23.336;2023-05-16T02:45:44;64459.16;;;-141.35;100.00
10706;BME280;5404;42.656;23.336;2023-05-16T02:48:09;64459.16;;;-141.35;100.00
10706;BME280;5404;42.656;23.336;2023-05-16T02:50:37;64459.16;;;-141.35;100.00
10706;BME280;5404;42.656;23.336;2023-05-16T02:53:04;64459.16;;;-141.35;100.00
10706;BME280;5404;42.656;23.336;2023-05-16T02:55:30;64459.16;;;-141.35;100.00
10706;BME280;5404;42.656;23.336;2023-05-16T02:57:56;64459.16;;;-141.35;100.00
10706;BME280;5404;42.656;23.336;2023-05-16T03:00:24;64459.16;;;-141.35;100.00
10706;BME280;5404;42.656;23.336;2023-05-16T03:02:52;64459.16;;;-141.35;100.00
10706;BME280;5404;42.656;23.336;2023-05-16T03:05:17;64459.16;;;-141.35;100.00
10706;BME280;5404;42.656;23.336;2023-05-16T03:07:43;64459.16;;;-141.35;100.00
10706;BME280;5404;42.656;23.336;2023-05-16T03:10:08;64459.16;;;-141.35;100.00
10706;BME280;5404;42.656;23.336;2023-05-16T03:12:35;64459.16;;;-141.35;100.00
10706;BME280;5404;42.656;23.336;2023-05-16T03:15:01;64459.16;;;-141.35;100.00
10706;BME280;5404;42.656;23.336;2023-05-16T03:17:26;64459.16;;;-141.35;100.00
10706;BME280;5404;42.656;23.336;2023-05-16T03:19:52;64459.16;;;-141.35;100.00
10706;BME280;5404;42.656;23.336;2023-05-16T03:22:17;64459.16;;;-141.35;100.00
10706;BME280;5404;42.656;23.336;2023-05-16T03:24:43;64459.16;;;-141.35;100.00
10706;BME280;5404;42.656;23.336;2023-05-16T03:27:10;64459.16;;;-141.35;100.00
10706;BME280;5404;42.656;23.336;2023-05-16T03:29:36;64459.16;;;-141.35;100.00
10706;BME280;5404;42.656;23.336;2023-05-16T03:32:03;64459.16;;;-141.35;100.00
10706;BME280;5404;42.656;23.336;2023-05-16T03:34:29;64459.16;;;-141.35;100.00
10706;BME280;5404;42.656;23.336;2023-05-16T03:36:54;64459.16;;;-141.35;100.00
10706;BME280;5404;42.656;23.336;2023-05-16T03:39:20;64459.16;;;-141.35;100.00
10706;BME280;5404;42.656;23.336;2023-05-16T03:41:46;64459.16;;;-141.35;100.00
10706;BME280;5404;42.656;23.336;2023-05-16T03:44:11;64459.16;;;-141.35;100.00
10706;BME280;5404;42.656;23.336;2023-05-16T03:46:37;64459.16;;;-141.35;100.00
10706;BME280;5404;42.656;23.336;2023-05-16T03:49:02;64459.16;;;-141.35;100.00
10706;BME280;5404;42.656;23.336;2023-05-16T03:51:28;64459.16;;;-141.35;100.00
10706;BME280;5404;42.656;23.336;2023-05-16T03:53:54;64459.16;;;-141.35;100.00
10706;BME280;5404;42.656;23.336;2023-05-16T03:56:20;64459.16;;;-141.35;100.00
10706;BME280;5404;42.656;23.336;2023-05-16T03:58:46;64459.16;;;-141.35;100.00
10706;BME280;5404;42.656;23.336;2023-05-16T04:01:12;64459.16;;;-141.35;100.00
10706;BME280;5404;42.656;23.336;2023-05-16T04:03:37;64459.16;;;-141.35;100.00
10706;BME280;5404;42.656;23.336;2023-05-16T04:06:03;64459.16;;;-141.35;100.00
10706;BME280;5404;42.656;23.336;2023-05-16T04:08:28;64459.16;;;-141.35;100.00
10706;BME280;5404;42.656;23.336;2023-05-16T04:10:54;64459.16;;;-141.35;100.00
10706;BME280;5404;42.656;23.336;2023-05-16T04:13:20;64459.16;;;-141.35;100.00
10706;BME280;5404;42.656;23.336;2023-05-16T04:15:45;64459.16;;;-141.35;100.00
10706;BME280;5404;42.656;23.336;2023-05-16T04:18:12;64459.16;;;-141.35;100.00
10706;BME280;5404;42.656;23.336;2023-05-16T04:20:38;64459.16;;;-141.35;100.00
10706;BME280;5404;42.656;23.336;2023-05-16T04:23:05;64459.16;;;-141.35;100.00
10706;BME280;5404;42.656;23.336;2023-05-16T04:25:30;64459.16;;;-141.35;100.00
10706;BME280;5404;42.656;23.336;2023-05-16T04:27:57;64459.16;;;-141.35;100.00
10706;BME280;5404;42.656;23.336;2023-05-16T04:30:22;64459.16;;;-141.35;100.00
10706;BME280;5404;42.656;23.336;2023-05-16T04:32:47;64459.16;;;-141.35;100.00
10706;BME280;5404;42.656;23.336;2023-05-16T04:35:14;64459.16;;;-141.35;100.00
10706;BME280;5404;42.656;23.336;2023-05-16T04:37:41;64459.16;;;-141.35;100.00
10706;BME280;5404;42.656;23.336;2023-05-16T04:40:07;64459.16;;;-141.35;100.00
10706;BME280;5404;42.656;23.336;2023-05-16T04:42:34;64459.16;;;-141.35;100.00
10706;BME280;5404;42.656;23.336;2023-05-16T04:44:59;64459.16;;;-141.35;100.00
10706;BME280;5404;42.656;23.336;2023-05-16T04:47:25;64459.16;;;-141.35;100.00
10706;BME280;5404;42.656;23.336;2023-05-16T04:49:50;64459.16;;;-141.35;100.00
10706;BME280;5404;42.656;23.336;2023-05-16T04:52:16;64459.16;;;-141.35;100.00
10706;BME280;5404;42.656;23.336;2023-05-16T04:54:41;64459.16;;;-141.35;100.00
10706;BME280;5404;42.656;23.336;2023-05-16T04:57:07;64459.16;;;-141.35;100.00
10706;BME280;5404;42.656;23.336;2023-05-16T04:59:32;64459.16;;;-141.35;100.00
10706;BME280;5404;42.656;23.336;2023-05-16T05:01:57;64459.16;;;-141.35;100.00
10706;BME280;5404;42.656;23.336;2023-05-16T05:04:23;64459.16;;;-141.35;100.00
10706;BME280;5404;42.656;23.336;2023-05-16T05:06:49;64459.16;;;-141.35;100.00
10706;BME280;5404;42.656;23.336;2023-05-16T05:09:14;64459.16;;;-141.35;100.00
10706;BME280;5404;42.656;23.336;2023-05-16T05:11:40;64459.16;;;-141.35;100.00
10706;BME280;5404;42.656;23.336;2023-05-16T05:14:05;64459.16;;;-141.35;100.00
10706;BME280;5404;42.656;23.336;2023-05-16T05:16:31;64459.16;;;-141.35;100.00
10706;BME280;5404;42.656;23.336;2023-05-16T05:18:57;64459.16;;;-141.35;100.00
10706;BME280;5404;42.656;23.336;2023-05-16T05:21:22;64459.16;;;-141.35;100.00
10706;BME280;5404;42.656;23.336;2023-05-16T05:23:49;64459.16;;;-141.35;100.00
10706;BME280;5404;42.656;23.336;2023-05-16T05:26:16;64459.16;;;-141.35;100.00
10706;BME280;5404;42.656;23.336;2023-05-16T05:28:43;64459.16;;;-141.35;100.00
10706;BME280;5404;42.656;23.336;2023-05-16T05:31:09;64459.16;;;-141.35;100.00
10706;BME280;5404;42.656;23.336;2023-05-16T05:33:34;64459.16;;;-141.35;100.00
10706;BME280;5404;42.656;23.336;2023-05-16T05:36:00;64459.16;;;-141.35;100.00
10706;BME280;5404;42.656;23.336;2023-05-16T06:51:44;94408.09;;;16.24;100.00
10706;BME280;5404;42.656;23.336;2023-05-16T06:54:10;94399.69;;;16.13;100.00
10706;BME280;5404;42.656;23.336;2023-05-16T06:56:35;94389.50;;;16.19;100.00
10706;BME280;5404;42.656;23.336;2023-05-16T06:59:01;94394.19;;;16.22;100.00
10706;BME280;5404;42.656;23.336;2023-05-16T07:01:26;94398.25;;;16.16;100.00
10706;BME280;5404;42.656;23.336;2023-05-16T07:03:53;94397.13;;;16.17;100.00
10706;BME280;5404;42.656;23.336;2023-05-16T07:06:19;94409.78;;;16.16;100.00
10706;BME280;5404;42.656;23.336;2023-05-16T07:08:44;94408.88;;;16.24;100.00
10706;BME280;5404;42.656;23.336;2023-05-16T07:11:10;94392.97;;;16.31;100.00
10706;BME280;5404;42.656;23.336;2023-05-16T07:13:36;94382.44;;;16.26;100.00
10706;BME280;5404;42.656;23.336;2023-05-16T07:16:02;94379.97;;;16.33;100.00
10706;BME280;5404;42.656;23.336;2023-05-16T07:18:27;94391.59;;;16.38;100.00
10706;BME280;5404;42.656;23.336;2023-05-16T07:20:53;94380.50;;;16.39;100.00
10706;BME280;5404;42.656;23.336;2023-05-16T07:23:19;94370.06;;;16.38;100.00
10706;BME280;5404;42.656;23.336;2023-05-16T07:25:45;94367.38;;;16.38;100.00
10706;BME280;5404;42.656;23.336;2023-05-16T07:28:10;94349.38;;;16.26;100.00
10706;BME280;5404;42.656;23.336;2023-05-16T07:30:35;94374.91;;;16.44;100.00
10706;BME280;5404;42.656;23.336;2023-05-16T07:33:01;94372.00;;;16.49;100.00
10706;BME280;5404;42.656;23.336;2023-05-16T07:35:28;94374.00;;;16.52;100.00
10706;BME280;5404;42.656;23.336;2023-05-16T07:37:53;94386.75;;;16.55;100.00
10706;BME280;5404;42.656;23.336;2023-05-16T07:40:19;94389.88;;;16.57;100.00
10706;BME280;5404;42.656;23.336;2023-05-16T07:42:50;94397.72;;;16.62;100.00
10706;BME280;5404;42.656;23.336;2023-05-16T07:45:15;94396.56;;;16.63;100.00
10706;BME280;5404;42.656;23.336;2023-05-16T07:47:43;94400.50;;;16.66;100.00
10706;BME280;5404;42.656;23.336;2023-05-16T07:50:09;94390.63;;;16.70;100.00
10706;BME280;5404;42.656;23.336;2023-05-16T07:52:35;94395.31;;;16.73;100.00
10706;BME280;5404;42.656;23.336;2023-05-16T07:55:01;94381.97;;;16.76;100.00
10706;BME280;5404;42.656;23.336;2023-05-16T07:57:27;94369.63;;;16.75;100.00
10706;BME280;5404;42.656;23.336;2023-05-16T07:59:54;94374.25;;;16.75;100.00
10706;BME280;5404;42.656;23.336;2023-05-16T08:02:22;94386.31;;;16.81;100.00
10706;BME280;5404;42.656;23.336;2023-05-16T08:04:50;94381.81;;;16.85;100.00
10706;BME280;5404;42.656;23.336;2023-05-16T08:07:16;94369.75;;;16.94;100.00
10706;BME280;5404;42.656;23.336;2023-05-16T08:09:41;94375.00;;;17.03;100.00
10706;BME280;5404;42.656;23.336;2023-05-16T08:12:07;94369.19;;;17.16;100.00
10706;BME280;5404;42.656;23.336;2023-05-16T08:14:33;94364.53;;;17.29;100.00
10706;BME280;5404;42.656;23.336;2023-05-16T08:16:59;94360.09;;;17.36;100.00
10706;BME280;5404;42.656;23.336;2023-05-16T08:19:25;94358.81;;;17.46;100.00
10706;BME280;5404;42.656;23.336;2023-05-16T08:21:51;94361.69;;;17.53;100.00
10706;BME280;5404;42.656;23.336;2023-05-16T08:24:16;94364.56;;;17.60;100.00
10706;BME280;5404;42.656;23.336;2023-05-16T08:26:42;94344.31;;;17.66;100.00
10706;BME280;5404;42.656;23.336;2023-05-16T08:29:08;94356.47;;;17.76;100.00
10706;BME280;5404;42.656;23.336;2023-05-16T08:31:35;94341.09;;;17.76;100.00
10706;BME280;5404;42.656;23.336;2023-05-16T08:34:00;94348.78;;;17.93;100.00
10706;BME280;5404;42.656;23.336;2023-05-16T08:36:26;94347.47;;;18.03;100.00
10706;BME280;5404;42.656;23.336;2023-05-16T08:38:52;94334.00;;;17.87;100.00
10706;BME280;5404;42.656;23.336;2023-05-16T08:41:18;94347.53;;;18.06;100.00
10706;BME280;5404;42.656;23.336;2023-05-16T08:43:43;94344.97;;;17.94;100.00
10706;BME280;5404;42.656;23.336;2023-05-16T08:46:09;94287.56;;;17.75;100.00
10706;BME280;5404;42.656;23.336;2023-05-16T08:48:35;94340.88;;;18.00;100.00
10706;BME280;5404;42.656;23.336;2023-05-16T08:51:02;94321.91;;;18.31;100.00
10706;BME280;5404;42.656;23.336;2023-05-16T08:53:39;94313.38;;;18.29;100.00
10706;BME280;5404;42.656;23.336;2023-05-16T08:56:09;94321.19;;;18.34;100.00
10706;BME280;5404;42.656;23.336;2023-05-16T08:58:35;94327.59;;;18.65;100.00
10706;BME280;5404;42.656;23.336;2023-05-16T09:01:01;94311.03;;;18.66;100.00
10706;BME280;5404;42.656;23.336;2023-05-16T09:03:31;94307.34;;;18.93;100.00
10706;BME280;5404;42.656;23.336;2023-05-16T09:05:56;94299.31;;;19.19;100.00
10706;BME280;5404;42.656;23.336;2023-05-16T09:08:22;94302.84;;;19.23;100.00
10706;BME280;5404;42.656;23.336;2023-05-16T09:10:49;94306.97;;;18.95;100.00
10706;BME280;5404;42.656;23.336;2023-05-16T09:13:14;94313.91;;;18.96;100.00
10706;BME280;5404;42.656;23.336;2023-05-16T09:15:40;94297.44;;;19.23;100.00
10706;BME280;5404;42.656;23.336;2023-05-16T09:18:11;94299.69;;;19.40;100.00
10706;BME280;5404;42.656;23.336;2023-05-16T09:20:42;94258.00;;;19.19;100.00
10706;BME280;5404;42.656;23.336;2023-05-16T09:23:11;94288.38;;;19.35;100.00
10706;BME280;5404;42.656;23.336;2023-05-16T09:25:38;94291.66;;;19.25;100.00
10706;BME280;5404;42.656;23.336;2023-05-16T09:28:04;94294.41;;;19.06;100.00
10706;BME280;5404;42.656;23.336;2023-05-16T09:30:31;94294.72;;;19.01;100.00
10706;BME280;5404;42.656;23.336;2023-05-16T09:32:58;94288.56;;;19.00;100.00
10706;BME280;5404;42.656;23.336;2023-05-16T09:35:23;94301.28;;;19.00;100.00
10706;BME280;5404;42.656;23.336;2023-05-16T09:37:50;94297.34;;;18.97;100.00
10706;BME280;5404;42.656;23.336;2023-05-16T09:40:21;94291.25;;;19.00;100.00
10706;BME280;5404;42.656;23.336;2023-05-16T09:42:47;94286.91;;;18.96;100.00
10706;BME280;5404;42.656;23.336;2023-05-16T09:45:27;94286.31;;;19.06;100.00
10706;BME280;5404;42.656;23.336;2023-05-16T09:47:53;94295.50;;;19.01;100.00
10706;BME280;5404;42.656;23.336;2023-05-16T09:50:18;94283.50;;;18.99;100.00
10706;BME280;5404;42.656;23.336;2023-05-16T09:52:44;94275.25;;;18.88;100.00
10706;BME280;5404;42.656;23.336;2023-05-16T09:55:09;94292.88;;;19.05;100.00
10706;BME280;5404;42.656;23.336;2023-05-16T09:57:38;94282.56;;;19.10;100.00
10706;BME280;5404;42.656;23.336;2023-05-16T10:00:06;94280.03;;;19.21;100.00
10706;BME280;5404;42.656;23.336;2023-05-16T10:02:35;94279.16;;;19.36;100.00
10706;BME280;5404;42.656;23.336;2023-05-16T10:05:01;94282.91;;;19.54;100.00
10706;BME280;5404;42.656;23.336;2023-05-16T10:07:27;94285.94;;;19.75;100.00
10706;BME280;5404;42.656;23.336;2023-05-16T10:09:55;94283.97;;;19.98;100.00
10706;BME280;5404;42.656;23.336;2023-05-16T10:12:29;94282.16;;;20.09;100.00
10706;BME280;5404;42.656;23.336;2023-05-16T10:15:00;94275.47;;;20.26;100.00
10706;BME280;5404;42.656;23.336;2023-05-16T10:17:29;94289.97;;;20.14;100.00
10706;BME280;5404;42.656;23.336;2023-05-16T10:19:57;94279.47;;;20.09;100.00
10706;BME280;5404;42.656;23.336;2023-05-16T10:22:25;94292.06;;;19.98;100.00
10706;BME280;5404;42.656;23.336;2023-05-16T10:24:59;94294.94;;;20.12;100.00
10706;BME280;5404;42.656;23.336;2023-05-16T10:27:29;94287.47;;;20.02;100.00
10706;BME280;5404;42.656;23.336;2023-05-16T10:29:55;94286.63;;;20.24;100.00
10706;BME280;5404;42.656;23.336;2023-05-16T10:32:23;94265.41;;;20.26;100.00
10706;BME280;5404;42.656;23.336;2023-05-16T10:34:49;94271.66;;;20.30;100.00
10706;BME280;5404;42.656;23.336;2023-05-16T10:37:15;94262.56;;;20.16;100.00
10706;BME280;5404;42.656;23.336;2023-05-16T10:39:41;94264.34;;;20.05;100.00
10706;BME280;5404;42.656;23.336;2023-05-16T10:42:07;94255.41;;;20.01;100.00
10706;BME280;5404;42.656;23.336;2023-05-16T10:44:33;94239.22;;;20.04;100.00
10706;BME280;5404;42.656;23.336;2023-05-16T10:46:59;94229.44;;;20.22;100.00
10706;BME280;5404;42.656;23.336;2023-05-16T10:49:27;94230.66;;;20.61;100.00
10706;BME280;5404;42.656;23.336;2023-05-16T10:52:05;94218.59;;;20.96;100.00
10706;BME280;5404;42.656;23.336;2023-05-16T10:54:39;94204.19;;;21.25;100.00
10706;BME280;5404;42.656;23.336;2023-05-16T10:57:08;94221.19;;;21.22;100.00
10706;BME280;5404;42.656;23.336;2023-05-16T10:59:45;94232.03;;;21.22;100.00
10706;BME280;5404;42.656;23.336;2023-05-16T11:02:28;94233.00;;;21.00;100.00
10706;BME280;5404;42.656;23.336;2023-05-16T11:04:55;94227.34;;;20.78;100.00
10706;BME280;5404;42.656;23.336;2023-05-16T11:07:24;94228.28;;;20.56;100.00
10706;BME280;5404;42.656;23.336;2023-05-16T11:10:14;94231.50;;;20.32;100.00
10706;BME280;5404;42.656;23.336;2023-05-16T11:12:49;94244.47;;;20.20;100.00
10706;BME280;5404;42.656;23.336;2023-05-16T11:15:27;94243.28;;;20.17;100.00
10706;BME280;5404;42.656;23.336;2023-05-16T11:18:13;94212.06;;;19.97;100.00
10706;BME280;5404;42.656;23.336;2023-05-16T11:20:40;94242.63;;;20.27;100.00
10706;BME280;5404;42.656;23.336;2023-05-16T11:25:56;94241.97;;;20.37;100.00
10706;BME280;5404;42.656;23.336;2023-05-16T11:28:25;94258.81;;;20.53;100.00
10706;BME280;5404;42.656;23.336;2023-05-16T11:30:56;94263.44;;;20.53;100.00
10706;BME280;5404;42.656;23.336;2023-05-16T11:33:23;94249.41;;;20.44;100.00
10706;BME280;5404;42.656;23.336;2023-05-16T11:36:06;94254.59;;;20.59;100.00
10706;BME280;5404;42.656;23.336;2023-05-16T11:38:32;94250.88;;;20.74;100.00
10706;BME280;5404;42.656;23.336;2023-05-16T11:41:06;94256.13;;;20.94;100.00
10706;BME280;5404;42.656;23.336;2023-05-16T11:43:43;94255.09;;;21.05;100.00
10706;BME280;5404;42.656;23.336;2023-05-16T11:46:13;94242.56;;;20.94;100.00
10706;BME280;5404;42.656;23.336;2023-05-16T11:48:40;94236.25;;;20.79;100.00
10706;BME280;5404;42.656;23.336;2023-05-16T11:51:05;94150.56;;;20.20;100.00
10706;BME280;5404;42.656;23.336;2023-05-16T11:53:32;94239.97;;;20.67;100.00
10706;BME280;5404;42.656;23.336;2023-05-16T11:55:58;94249.75;;;20.75;100.00
10706;BME280;5404;42.656;23.336;2023-05-16T11:58:27;94235.50;;;20.82;100.00
10706;BME280;5404;42.656;23.336;2023-05-16T12:00:54;94225.66;;;21.04;100.00
10706;BME280;5404;42.656;23.336;2023-05-16T12:03:20;94226.25;;;21.27;100.00
10706;BME280;5404;42.656;23.336;2023-05-16T12:05:52;94207.41;;;21.41;100.00
10706;BME280;5404;42.656;23.336;2023-05-16T12:08:19;94167.78;;;21.22;100.00
10706;BME280;5404;42.656;23.336;2023-05-16T12:10:49;94198.22;;;21.59;100.00
10706;BME280;5404;42.656;23.336;2023-05-16T12:13:19;94202.56;;;21.74;100.00
10706;BME280;5404;42.656;23.336;2023-05-16T12:15:47;94207.81;;;22.04;100.00
10706;BME280;5404;42.656;23.336;2023-05-16T12:18:13;94214.94;;;22.40;100.00
10706;BME280;5404;42.656;23.336;2023-05-16T12:20:42;94211.16;;;22.66;100.00
10706;BME280;5404;42.656;23.336;2023-05-16T12:23:10;94196.47;;;23.05;100.00
10706;BME280;5404;42.656;23.336;2023-05-16T12:25:37;94197.28;;;23.45;100.00
10706;BME280;5404;42.656;23.336;2023-05-16T12:28:08;94191.78;;;23.87;100.00
10706;BME280;5404;42.656;23.336;2023-05-16T12:30:38;94180.94;;;23.52;100.00
10706;BME280;5404;42.656;23.336;2023-05-16T12:33:11;94185.66;;;23.34;100.00
10706;BME280;5404;42.656;23.336;2023-05-16T12:35:44;94160.00;;;23.31;100.00
10706;BME280;5404;42.656;23.336;2023-05-16T12:38:12;94200.38;;;23.08;100.00
10706;BME280;5404;42.656;23.336;2023-05-16T12:40:41;94200.94;;;22.35;100.00
10706;BME280;5404;42.656;23.336;2023-05-16T12:43:20;94200.03;;;21.99;100.00
10706;BME280;5404;42.656;23.336;2023-05-16T12:45:51;94206.63;;;21.40;100.00
10706;BME280;5404;42.656;23.336;2023-05-16T12:48:18;94201.16;;;21.37;100.00
10706;BME280;5404;42.656;23.336;2023-05-16T12:50:43;94209.41;;;21.04;100.00
10706;BME280;5404;42.656;23.336;2023-05-16T12:53:14;94217.69;;;20.77;100.00
10706;BME280;5404;42.656;23.336;2023-05-16T12:55:41;94218.47;;;20.81;100.00
10706;BME280;5404;42.656;23.336;2023-05-16T12:58:07;94206.19;;;20.91;100.00
10706;BME280;5404;42.656;23.336;2023-05-16T13:00:32;94211.53;;;20.84;100.00
10706;BME280;5404;42.656;23.336;2023-05-16T13:02:58;94222.03;;;20.89;100.00
10706;BME280;5404;42.656;23.336;2023-05-16T13:05:23;94225.09;;;20.84;100.00
10706;BME280;5404;42.656;23.336;2023-05-16T13:07:49;94227.31;;;20.75;100.00
10706;BME280;5404;42.656;23.336;2023-05-16T13:10:18;94233.84;;;20.70;100.00
10706;BME280;5404;42.656;23.336;2023-05-16T13:12:46;94226.84;;;20.69;100.00
10706;BME280;5404;42.656;23.336;2023-05-16T13:15:11;94209.38;;;20.60;100.00
10706;BME280;5404;42.656;23.336;2023-05-16T13:17:38;94225.00;;;20.77;100.00
10706;BME280;5404;42.656;23.336;2023-05-16T13:20:05;94174.06;;;20.49;100.00
10706;BME280;5404;42.656;23.336;2023-05-16T13:22:35;94225.38;;;20.75;100.00
10706;BME280;5404;42.656;23.336;2023-05-16T13:25:01;94238.94;;;20.75;100.00
10706;BME280;5404;42.656;23.336;2023-05-16T13:27:30;94232.69;;;20.71;100.00
10706;BME280;5404;42.656;23.336;2023-05-16T13:29:55;94221.75;;;20.61;100.00
10706;BME280;5404;42.656;23.336;2023-05-16T13:32:21;94237.56;;;20.59;100.00
10706;BME280;5404;42.656;23.336;2023-05-16T13:34:46;94231.72;;;20.53;100.00
10706;BME280;5404;42.656;23.336;2023-05-16T13:37:12;94242.47;;;20.46;100.00
10706;BME280;5404;42.656;23.336;2023-05-16T13:39:37;94244.19;;;20.28;100.00
10706;BME280;5404;42.656;23.336;2023-05-16T13:42:03;94255.66;;;20.18;100.00
10706;BME280;5404;42.656;23.336;2023-05-16T13:44:28;94251.59;;;20.05;100.00
10706;BME280;5404;42.656;23.336;2023-05-16T13:46:55;94268.53;;;20.02;100.00
10706;BME280;5404;42.656;23.336;2023-05-16T13:49:22;94267.31;;;19.96;100.00
10706;BME280;5404;42.656;23.336;2023-05-16T13:51:48;94265.19;;;19.83;100.00
10706;BME280;5404;42.656;23.336;2023-05-16T13:54:17;94258.06;;;19.71;100.00
10706;BME280;5404;42.656;23.336;2023-05-16T13:56:42;94265.94;;;19.53;100.00
10706;BME280;5404;42.656;23.336;2023-05-16T13:59:08;94279.44;;;19.53;100.00
10706;BME280;5404;42.656;23.336;2023-05-16T14:01:34;94284.78;;;19.50;100.00
10706;BME280;5404;42.656;23.336;2023-05-16T14:04:01;94291.75;;;19.51;100.00
10706;BME280;5404;42.656;23.336;2023-05-16T14:06:26;94265.22;;;19.34;100.00
10706;BME280;5404;42.656;23.336;2023-05-16T14:08:53;94292.59;;;19.55;100.00
10706;BME280;5404;42.656;23.336;2023-05-16T14:11:18;94316.59;;;19.60;100.00